Time;durP1;ratioP1;P1;durP2;ratioP2;P2;SDS_P1;SDS_P2;PMS_P1;PMS_P2;Temp;Humidity;BMP_temperature;BMP_pressure;BME280_temperature;BME280_humidity;BME280_pressure;Samples;Min_cycle;Max_cycle;Signal;HPM_P1;HPM_P2
2021/03/04 00:57:03;;;;;;;94.97;33.50;;;;;;;1.32;72.10;99935.06;1744953;78;22746;31
2021/03/04 01:24:27;;;;;;;76.90;26.57;;;;;;;0.97;72.14;99914.93;1677962;81;22955;31
2021/03/04 05:58:29;;;;;;;52.95;20.52;;;;;;;-0.19;76.17;99714.38;1752836;79;21202;31
2021/03/04 06:01:41;;;;;;;62.00;23.17;;;;;;;-0.21;78.93;99713.91;1682511;81;21637;31
2021/03/04 06:04:12;;;;;;;58.95;21.68;;;;;;;-0.15;75.99;99713.64;1732299;80;21520;-81
2021/03/04 06:12:32;;;;;;;122.65;37.55;;;;;;;0.00;77.91;99715.36;1745180;80;21200;-78
2021/03/04 06:15:02;;;;;;;162.22;47.00;;;;;;;0.09;79.79;99706.63;1761813;79;21206;-78
2021/03/04 06:17:32;;;;;;;214.00;60.15;;;;;;;0.19;79.72;99706.47;1767326;79;21546;-77
2021/03/04 06:20:03;;;;;;;601.42;162.40;;;;;;;0.18;79.46;99688.98;1767465;79;21215;-77
2021/03/04 06:22:34;;;;;;;263.82;79.85;;;;;;;0.33;78.56;99697.88;1750690;80;22083;-78
2021/03/04 06:25:11;;;;;;;103.92;32.20;;;;;;;0.37;78.12;99694.56;1745162;79;21154;-77
2021/03/04 06:27:43;;;;;;;63.10;23.30;;;;;;;0.42;77.39;99684.05;1750361;80;21176;-78
2021/03/04 06:30:18;;;;;;;61.08;20.32;;;;;;;0.41;76.23;99683.59;1719890;81;21564;-77
2021/03/04 06:33:01;;;;;;;66.07;22.55;;;;;;;0.42;74.95;99685.33;1730391;78;21181;-78
2021/03/04 06:35:42;;;;;;;64.22;23.38;;;;;;;0.35;76.05;99683.44;1784081;77;21149;-78
2021/03/04 06:38:16;;;;;;;58.35;20.97;;;;;;;0.41;74.60;99689.98;1745989;78;21192;-78
2021/03/04 06:40:44;;;;;;;66.33;24.07;;;;;;;0.34;75.85;99685.56;1752793;78;21149;-77
2021/03/04 06:43:25;;;;;;;60.23;20.30;;;;;;;0.36;75.92;99683.91;1775315;78;21180;-78
2021/03/04 06:46:04;;;;;;;69.37;23.10;;;;;;;0.42;74.51;99678.94;1779436;78;21179;-77
2021/03/04 06:48:53;;;;;;;60.40;21.95;;;;;;;0.46;76.60;99674.73;1793426;78;25449;-77
2021/03/04 06:51:21;;;;;;;69.12;22.93;;;;;;;0.49;75.22;99675.69;1793458;78;21301;-77
2021/03/04 06:53:51;;;;;;;61.48;21.50;;;;;;;0.59;75.40;99670.38;1779212;79;21180;-77
2021/03/04 06:56:31;;;;;;;65.83;23.25;;;;;;;0.69;74.55;99677.45;1803075;78;21123;-77
2021/03/04 06:59:01;;;;;;;60.38;20.85;;;;;;;0.71;75.05;99666.83;1783559;77;21240;-77
2021/03/04 07:01:29;;;;;;;69.47;25.27;;;;;;;0.80;75.09;99664.92;1807261;78;21121;-77
2021/03/04 07:03:59;;;;;;;69.53;23.77;;;;;;;0.85;75.11;99654.78;1790388;77;21118;-77
2021/03/04 07:06:29;;;;;;;78.28;24.70;;;;;;;0.92;75.90;99666.48;1793720;79;21130;-77
2021/03/04 07:08:57;;;;;;;55.00;21.65;;;;;;;0.99;75.57;99663.23;1796251;78;21134;-77
2021/03/04 07:11:26;;;;;;;65.65;23.20;;;;;;;1.11;74.19;99661.76;1795909;79;21103;-77
2021/03/04 07:13:54;;;;;;;68.02;21.62;;;;;;;1.14;74.27;99659.28;1785526;79;21136;-77
2021/03/04 07:16:45;;;;;;;76.17;26.90;;;;;;;1.18;75.70;99654.67;1806523;77;22123;-77
2021/03/04 07:19:19;;;;;;;65.95;25.90;;;;;;;1.24;75.82;99652.23;1791744;79;21123;-77
2021/03/04 07:21:48;;;;;;;66.28;24.77;;;;;;;1.39;75.19;99650.40;1802148;79;21121;-78
2021/03/04 07:24:18;;;;;;;57.05;21.07;;;;;;;1.48;75.08;99652.30;1791952;79;21125;-76
2021/03/04 07:26:52;;;;;;;56.08;22.82;;;;;;;1.55;75.86;99646.06;1801171;79;21098;-77
2021/03/04 07:29:22;;;;;;;60.92;23.75;;;;;;;1.65;75.18;99648.78;1783843;79;21556;-78
2021/03/04 07:31:52;;;;;;;59.27;19.90;;;;;;;1.75;74.88;99646.45;1804780;79;21562;-77
2021/03/04 07:34:32;;;;;;;55.58;21.40;;;;;;;1.88;74.70;99642.83;1783720;78;21115;-77
2021/03/04 07:37:03;;;;;;;54.27;21.57;;;;;;;1.97;75.83;99646.86;1803035;79;21094;-76
2021/03/04 07:39:37;;;;;;;49.38;19.95;;;;;;;2.09;75.31;99645.79;1799092;77;21140;-77
2021/03/04 07:42:23;;;;;;;49.90;20.80;;;;;;;2.18;74.97;99644.65;1744334;81;21621;-77
2021/03/04 07:44:52;;;;;;;44.30;19.20;;;;;;;2.32;73.96;99635.05;1795359;79;21886;-77
2021/03/04 07:47:30;;;;;;;45.67;19.07;;;;;;;2.35;73.86;99619.72;1810739;79;21110;-77
2021/03/04 07:49:58;;;;;;;47.03;18.55;;;;;;;2.54;72.78;99611.87;1770926;79;22233;-77
2021/03/04 07:52:27;;;;;;;46.53;20.12;;;;;;;2.51;72.81;99610.14;1817947;79;21648;-77
2021/03/04 07:54:58;;;;;;;52.08;21.62;;;;;;;2.66;72.45;99608.20;1819035;79;21157;-78
2021/03/04 07:57:26;;;;;;;56.05;22.42;;;;;;;2.75;72.48;99604.50;1815758;79;21188;-76
2021/03/04 08:00:05;;;;;;;56.10;23.10;;;;;;;2.91;72.06;99603.45;1812669;79;21133;-76
2021/03/04 08:02:43;;;;;;;47.60;21.33;;;;;;;3.07;71.76;99607.09;1818948;78;21593;-76
2021/03/04 08:05:34;;;;;;;53.38;21.62;;;;;;;3.16;71.48;99596.91;1810290;77;21118;-76
2021/03/04 08:08:14;;;;;;;48.92;19.23;;;;;;;3.29;71.25;99591.09;1811840;77;21121;-77
2021/03/04 08:10:50;;;;;;;50.67;19.60;;;;;;;3.43;70.91;99592.97;1811154;77;21974;-76
2021/03/04 08:13:18;;;;;;;47.65;20.82;;;;;;;3.51;70.22;99591.34;1804655;77;21125;-77
2021/03/04 08:15:46;;;;;;;46.88;19.52;;;;;;;3.54;70.09;99584.94;1805400;79;21153;-77
2021/03/04 08:18:22;;;;;;;44.33;18.20;;;;;;;3.58;69.90;99588.87;1814891;78;21093;-77
2021/03/04 08:20:52;;;;;;;45.98;18.55;;;;;;;3.60;69.70;99583.72;1810845;77;21119;-77
2021/03/04 08:23:21;;;;;;;44.75;19.07;;;;;;;3.65;69.72;99576.08;1796742;79;21996;-77
2021/03/04 08:25:49;;;;;;;47.50;20.30;;;;;;;3.74;69.69;99574.47;1811196;79;21126;-77
2021/03/04 08:28:27;;;;;;;45.95;19.60;;;;;;;3.73;69.83;99574.01;1816307;77;21098;-76
2021/03/04 08:30:59;;;;;;;46.45;19.02;;;;;;;3.87;69.79;99577.16;1754886;81;21116;-76
2021/03/04 08:33:27;;;;;;;45.75;18.62;;;;;;;3.93;69.49;99579.78;1743200;82;21112;-77
2021/03/04 08:35:59;;;;;;;44.80;18.67;;;;;;;4.03;69.14;99575.16;1783215;79;21531;-77
2021/03/04 08:38:25;;;;;;;57.27;21.77;;;;;;;4.14;69.09;99568.83;1810246;79;21086;-77
2021/03/04 08:40:58;;;;;;;44.58;18.17;;;;;;;4.24;68.45;99563.31;1797906;78;21890;-76
2021/03/04 08:43:28;;;;;;;48.95;19.75;;;;;;;4.37;68.34;99559.98;1793671;78;21131;-77
2021/03/04 08:45:59;;;;;;;63.28;27.45;;;;;;;4.42;68.02;99556.15;1801534;79;21127;-77
2021/03/04 08:48:27;;;;;;;60.33;25.10;;;;;;;4.50;67.66;99556.66;1774587;79;21180;-76
2021/03/04 08:51:00;;;;;;;44.93;20.20;;;;;;;4.49;67.62;99549.77;1768752;79;21133;-76
2021/03/04 08:53:31;;;;;;;47.48;19.77;;;;;;;4.61;67.67;99545.13;1772686;79;21547;-77
2021/03/04 08:56:01;;;;;;;49.83;19.65;;;;;;;4.67;66.98;99539.16;1788413;79;21118;-76
2021/03/04 08:58:32;;;;;;;50.45;19.75;;;;;;;4.84;66.38;99536.69;1774022;80;21283;-77
2021/03/04 09:01:03;;;;;;;49.88;20.72;;;;;;;5.04;67.07;99535.06;1777229;79;21130;-77
2021/03/04 09:03:38;;;;;;;45.48;18.20;;;;;;;5.15;66.61;99518.34;1783509;79;21547;-76
2021/03/04 09:06:07;;;;;;;;;;;;;;;5.31;66.72;99517.95;1719482;82;21141;-77
2021/03/04 09:08:41;;;;;;;44.90;18.95;;;;;;;5.36;65.04;99504.23;1739957;81;20175;-76
2021/03/04 09:11:28;;;;;;;42.35;17.92;;;;;;;5.50;65.29;99496.52;1735479;81;21145;-77
2021/03/04 09:14:08;;;;;;;48.98;18.67;;;;;;;5.74;65.04;99501.29;1736026;81;21151;-77
2021/03/04 09:16:48;;;;;;;49.73;18.65;;;;;;;5.89;65.11;99495.27;1734453;81;21566;-77
2021/03/04 09:19:32;;;;;;;46.88;18.52;;;;;;;5.98;63.53;99488.86;1738019;82;21149;-75
2021/03/04 09:22:07;;;;;;;54.85;19.32;;;;;;;6.08;63.20;99484.12;1730054;82;21134;-78
2021/03/04 09:24:37;;;;;;;49.67;18.37;;;;;;;6.18;64.01;99487.55;1735171;81;21145;-76
2021/03/04 09:27:11;;;;;;;38.20;16.00;;;;;;;6.24;61.83;99476.36;1720121;82;21205;-75
2021/03/04 09:29:41;;;;;;;39.73;15.93;;;;;;;6.40;63.38;99470.30;1735281;81;21215;-77
2021/03/04 09:32:09;;;;;;;41.13;15.93;;;;;;;6.44;62.33;99473.30;1737748;82;21902;-76
2021/03/04 09:34:44;;;;;;;39.42;16.27;;;;;;;6.38;60.29;99474.61;1728809;82;21168;-78
2021/03/04 09:37:24;;;;;;;30.80;13.70;;;;;;;6.61;62.05;99468.11;1736719;82;21144;-76
2021/03/04 09:39:54;;;;;;;29.35;14.13;;;;;;;6.71;61.16;99477.98;1727535;82;21149;-78
2021/03/04 09:42:38;;;;;;;39.23;18.82;;;;;;;6.71;60.42;99471.52;1737935;82;21133;-77
2021/03/04 09:45:11;;;;;;;;;;;;;;;6.54;59.07;99465.10;1758301;81;21168;-76
2021/03/04 09:47:47;;;;;;;29.18;13.78;;;;;;;6.79;59.53;99463.30;1744883;81;20173;-77
2021/03/04 09:50:24;;;;;;;44.48;17.17;;;;;;;6.72;58.15;99455.14;1768490;81;21938;-76
2021/03/04 09:53:02;;;;;;;50.75;17.10;;;;;;;6.96;59.19;99453.77;1765250;81;21133;-77
2021/03/04 09:55:41;;;;;;;39.90;15.85;;;;;;;7.16;59.96;99449.78;1768287;81;21144;-75
2021/03/04 09:58:12;;;;;;;38.70;15.55;;;;;;;7.35;58.91;99447.92;1760411;81;21177;-77
2021/03/04 10:00:42;;;;;;;35.28;15.15;;;;;;;7.51;59.93;99440.07;1759403;80;21156;-77
2021/03/04 10:03:13;;;;;;;35.17;13.60;;;;;;;7.62;57.66;99441.27;1764664;81;21174;-77
2021/03/04 10:05:47;;;;;;;34.15;14.07;;;;;;;7.82;59.49;99434.64;1753007;81;21682;-78
2021/03/04 10:08:17;;;;;;;38.10;14.43;;;;;;;8.03;59.59;99435.75;1762078;81;21145;-77
2021/03/04 10:10:49;;;;;;;30.80;13.83;;;;;;;8.19;57.89;99435.61;1744367;82;21149;-78
2021/03/04 10:13:28;;;;;;;29.80;12.50;;;;;;;8.38;55.96;99430.67;1755100;81;21275;-77
2021/03/04 10:16:12;;;;;;;29.32;12.03;;;;;;;8.58;56.81;99423.15;1724174;80;21941;-77
2021/03/04 10:18:49;;;;;;;29.15;12.28;;;;;;;8.84;54.17;99413.75;1770662;80;21680;-78
2021/03/04 10:21:20;;;;;;;28.23;11.25;;;;;;;9.10;54.59;99410.80;1778138;79;21154;-77
2021/03/04 10:23:49;;;;;;;26.90;10.78;;;;;;;9.24;53.39;99404.12;1748700;82;21137;-78
2021/03/04 10:26:17;;;;;;;31.60;11.95;;;;;;;9.42;51.67;99399.09;1747151;80;21157;-77
2021/03/04 10:28:45;;;;;;;24.50;10.65;;;;;;;9.47;53.14;99394.67;1756624;81;21165;-78
2021/03/04 10:31:13;;;;;;;27.58;11.03;;;;;;;9.47;48.54;99386.88;1742354;80;21150;-78
2021/03/04 10:33:41;;;;;;;24.90;10.78;;;;;;;9.66;50.53;99394.80;1760035;81;21164;-77
2021/03/04 10:36:09;;;;;;;24.30;10.50;;;;;;;9.82;51.91;99382.86;1749284;82;21141;-77
2021/03/04 10:38:37;;;;;;;31.48;11.48;;;;;;;9.99;52.78;99382.55;1763441;81;21133;-78
2021/03/04 10:41:06;;;;;;;26.95;10.98;;;;;;;10.12;51.65;99380.14;1748787;81;21114;-78
2021/03/04 10:43:34;;;;;;;31.30;11.78;;;;;;;10.17;49.81;99369.23;1756879;80;21161;-77
2021/03/04 10:46:02;;;;;;;28.50;11.68;;;;;;;10.27;49.56;99368.17;1749677;81;21148;-78
2021/03/04 10:48:31;;;;;;;33.70;12.63;;;;;;;10.55;48.86;99368.95;1738721;82;21206;-77
2021/03/04 10:50:59;;;;;;;23.00;11.15;;;;;;;10.73;49.24;99364.66;1741488;82;21147;-78
2021/03/04 10:53:27;;;;;;;28.45;11.12;;;;;;;10.66;45.25;99358.31;1781795;80;21142;-77
2021/03/04 10:55:54;;;;;;;25.00;11.00;;;;;;;10.79;47.25;99355.87;1792027;79;21127;-79
2021/03/04 10:58:22;;;;;;;24.27;10.93;;;;;;;11.00;48.56;99345.87;1740024;80;21170;-78
2021/03/04 11:00:51;;;;;;;40.63;13.25;;;;;;;11.11;48.30;99346.03;1776524;80;21178;-77
2021/03/04 11:03:20;;;;;;;22.17;9.40;;;;;;;11.21;46.48;99336.27;1753416;82;21153;-76
2021/03/04 11:05:49;;;;;;;21.65;9.65;;;;;;;11.21;43.93;99334.97;1743064;81;21150;-76
2021/03/04 11:08:19;;;;;;;25.23;10.00;;;;;;;11.29;43.64;99330.42;1775450;80;21572;-75
2021/03/04 11:10:47;;;;;;;20.37;10.23;;;;;;;11.43;47.39;99331.84;1780576;79;21112;-76
2021/03/04 11:13:16;;;;;;;23.32;9.63;;;;;;;11.47;45.25;99326.97;1753197;82;21518;-75
2021/03/04 11:15:44;;;;;;;30.68;10.00;;;;;;;11.55;44.74;99314.61;1753337;80;21128;-76
2021/03/04 11:18:12;;;;;;;24.55;11.22;;;;;;;11.66;46.07;99314.35;1755674;80;21117;-76
2021/03/04 11:20:41;;;;;;;30.50;12.33;;;;;;;11.81;44.31;99309.17;1743610;81;21149;-76
2021/03/04 11:23:18;;;;;;;33.02;12.68;;;;;;;11.97;45.70;99299.22;1791337;78;22959;-77
2021/03/04 11:25:47;;;;;;;27.60;13.10;;;;;;;12.08;46.05;99299.79;1781306;79;21165;-76
2021/03/04 11:28:16;;;;;;;29.87;13.25;;;;;;;12.13;43.53;99293.52;1796602;79;21165;-75
2021/03/04 11:30:44;;;;;;;34.65;13.98;;;;;;;12.28;46.00;99286.19;1785971;79;21620;-76
2021/03/04 11:33:13;;;;;;;36.35;13.75;;;;;;;12.33;43.43;99286.89;1787016;79;21173;-74
2021/03/04 11:35:41;;;;;;;35.20;13.00;;;;;;;12.44;44.99;99277.02;1790002;79;22175;-74
2021/03/04 11:38:09;;;;;;;31.95;13.68;;;;;;;12.61;45.54;99275.64;1786967;79;21150;-74
2021/03/04 11:40:37;;;;;;;29.37;13.68;;;;;;;12.78;44.22;99272.06;1786053;79;21246;-74
2021/03/04 11:43:05;;;;;;;31.30;15.38;;;;;;;12.88;45.43;99263.05;1767088;78;21694;-75
2021/03/04 11:45:32;;;;;;;30.30;13.53;;;;;;;12.90;43.49;99266.92;1773187;79;21661;-76
2021/03/04 11:48:02;;;;;;;34.58;13.83;;;;;;;12.81;39.59;99264.16;1786984;79;21602;-76
2021/03/04 11:50:30;;;;;;;28.10;13.75;;;;;;;12.81;40.22;99257.64;1780175;79;21498;-74
2021/03/04 11:52:58;;;;;;;26.40;13.28;;;;;;;12.85;40.45;99244.89;1775315;79;21664;-76
2021/03/04 11:55:26;;;;;;;40.40;13.83;;;;;;;12.84;42.20;99244.48;1767950;80;21424;-75
2021/03/04 11:57:55;;;;;;;37.90;14.30;;;;;;;12.81;42.98;99240.68;1784862;79;21169;-76
2021/03/04 12:00:23;;;;;;;31.65;13.03;;;;;;;12.63;40.08;99244.69;1775856;79;21597;-77
2021/03/04 12:02:53;;;;;;;36.00;13.80;;;;;;;12.78;42.80;99236.84;1784452;79;21130;-77
2021/03/04 12:05:21;;;;;;;28.40;11.43;;;;;;;12.74;41.91;99230.03;1775880;80;21185;-76
2021/03/04 12:07:49;;;;;;;28.52;10.85;;;;;;;12.70;41.47;99228.42;1791286;79;21161;-76
2021/03/04 12:10:17;;;;;;;29.65;10.80;;;;;;;12.68;41.31;99223.24;1773969;80;21582;-76
2021/03/04 12:12:45;;;;;;;26.35;11.00;;;;;;;12.74;41.68;99220.89;1782158;79;21171;-76
2021/03/04 12:15:16;;;;;;;25.43;10.85;;;;;;;12.61;41.35;99216.50;1771348;80;21176;-75
2021/03/04 12:17:45;;;;;;;30.05;11.20;;;;;;;12.70;42.60;99206.25;1714529;83;21154;-74
2021/03/04 12:20:14;;;;;;;32.85;12.35;;;;;;;12.71;41.26;99203.59;1746408;81;21751;-74
2021/03/04 12:22:42;;;;;;;39.90;12.78;;;;;;;12.74;43.11;99199.56;1713693;83;21158;-76
2021/03/04 12:25:10;;;;;;;31.10;11.38;;;;;;;12.80;43.19;99198.98;1772345;80;21161;-74
2021/03/04 12:27:39;;;;;;;53.08;12.33;;;;;;;12.82;42.47;99191.95;1780741;79;21165;-77
2021/03/04 12:30:11;;;;;;;28.90;11.68;;;;;;;12.84;41.81;99192.30;1788991;79;21141;-76
2021/03/04 12:32:43;;;;;;;36.23;13.10;;;;;;;12.77;41.37;99189.94;1786076;79;21153;-77
2021/03/04 12:35:12;;;;;;;35.75;12.70;;;;;;;12.80;42.54;99179.41;1798510;78;21182;-76
2021/03/04 12:37:41;;;;;;;28.67;12.37;;;;;;;12.75;41.66;99188.67;1785835;79;21153;-76
2021/03/04 12:40:11;;;;;;;35.38;12.95;;;;;;;12.68;42.23;99180.20;1781872;79;21177;-77
2021/03/04 12:42:39;;;;;;;32.33;11.80;;;;;;;12.63;40.88;99172.97;1768306;79;21187;-76
2021/03/04 12:45:08;;;;;;;26.68;11.75;;;;;;;12.51;40.96;99172.05;1776050;80;21570;-76
2021/03/04 12:47:36;;;;;;;30.23;12.60;;;;;;;12.49;40.99;99166.04;1777793;79;21146;-77
2021/03/04 12:50:06;;;;;;;31.25;11.38;;;;;;;12.50;42.16;99166.00;1775931;80;21137;-76
2021/03/04 12:52:33;;;;;;;32.70;13.28;;;;;;;12.49;42.04;99160.83;1787257;79;21126;-77
2021/03/04 12:55:01;;;;;;;32.33;12.75;;;;;;;12.52;42.13;99155.06;1785232;80;21701;-76
2021/03/04 12:57:29;;;;;;;48.68;13.93;;;;;;;12.54;42.50;99152.42;1781997;79;21169;-77
2021/03/04 12:59:57;;;;;;;35.03;13.60;;;;;;;12.53;42.85;99157.22;1752938;80;21629;-76
2021/03/04 13:02:25;;;;;;;34.18;13.58;;;;;;;12.50;41.86;99150.81;1717114;82;21172;-77
2021/03/04 13:04:53;;;;;;;34.03;13.48;;;;;;;12.50;42.70;99149.05;1787606;80;21189;-75
2021/03/04 13:07:21;;;;;;;37.30;12.43;;;;;;;12.54;42.82;99149.81;1788851;79;21161;-76
2021/03/04 13:09:49;;;;;;;51.02;15.15;;;;;;;12.44;42.12;99147.09;1781855;79;21201;-75
2021/03/04 13:12:17;;;;;;;31.42;13.43;;;;;;;12.44;42.53;99142.73;1787179;79;22297;-75
2021/03/04 13:14:45;;;;;;;49.35;16.30;;;;;;;12.48;43.39;99145.64;1761436;79;21181;-74
2021/03/04 13:17:13;;;;;;;37.98;14.93;;;;;;;12.47;43.43;99142.64;1774706;79;21186;-74
2021/03/04 13:19:41;;;;;;;40.70;15.75;;;;;;;12.44;43.09;99147.09;1781992;79;21164;-75
2021/03/04 13:22:09;;;;;;;40.55;14.65;;;;;;;12.28;43.69;99137.61;1782377;79;21189;-75
2021/03/04 13:24:36;;;;;;;43.52;16.35;;;;;;;12.33;43.77;99140.91;1763538;79;21130;-76
2021/03/04 13:27:06;;;;;;;48.00;17.25;;;;;;;12.37;43.87;99142.51;1760971;79;21460;-76
2021/03/04 13:29:34;;;;;;;54.13;15.55;;;;;;;12.28;44.20;99138.45;1772591;79;21165;-78
2021/03/04 13:32:03;;;;;;;34.13;14.13;;;;;;;12.26;44.42;99140.25;1778487;79;21130;-77
2021/03/04 13:34:31;;;;;;;45.48;15.20;;;;;;;12.05;44.94;99133.94;1773764;79;21961;-75
2021/03/04 13:36:59;;;;;;;39.10;14.30;;;;;;;12.09;45.10;99139.45;1779283;79;22233;-76
2021/03/04 13:39:27;;;;;;;39.53;14.60;;;;;;;12.11;45.18;99134.20;1783622;79;21162;-76
2021/03/04 13:41:56;;;;;;;43.08;15.05;;;;;;;12.13;45.57;99135.01;1780115;79;21628;-75
2021/03/04 13:44:23;;;;;;;38.67;14.50;;;;;;;12.08;45.73;99127.80;1779444;79;21624;-75
2021/03/04 13:46:51;;;;;;;43.23;14.38;;;;;;;12.05;45.82;99130.48;1778370;79;21616;-74
2021/03/04 13:49:21;;;;;;;44.38;15.68;;;;;;;12.13;45.67;99128.49;1775079;79;21161;-76
2021/03/04 13:51:49;;;;;;;46.40;14.43;;;;;;;12.12;45.83;99123.73;1781502;79;21170;-77
2021/03/04 13:54:18;;;;;;;38.65;13.78;;;;;;;12.10;45.67;99117.72;1774966;79;21597;-76
2021/03/04 13:56:46;;;;;;;31.30;13.95;;;;;;;12.15;45.77;99113.66;1778097;79;21150;-76
2021/03/04 13:59:14;;;;;;;36.38;14.05;;;;;;;12.10;45.37;99116.42;1769311;79;21501;-76
2021/03/04 14:01:42;;;;;;;40.03;14.80;;;;;;;12.13;45.26;99115.00;1775453;79;21201;-77
2021/03/04 14:04:13;;;;;;;35.60;14.60;;;;;;;12.18;45.42;99107.06;1780630;80;21153;-77
2021/03/04 14:06:43;;;;;;;;;;;;;;;12.22;44.95;99109.13;1779482;79;21106;-74
2021/03/04 14:09:13;;;;;;;33.18;13.43;;;;;;;12.21;44.25;99106.95;1777688;79;20176;-76
2021/03/04 14:11:41;;;;;;;44.15;14.28;;;;;;;12.21;44.84;99098.28;1782935;79;21110;-74
2021/03/04 14:14:08;;;;;;;39.45;14.00;;;;;;;12.23;44.04;99102.54;1772550;79;21137;-75
2021/03/04 14:16:37;;;;;;;38.15;13.48;;;;;;;12.25;44.14;99098.12;1777928;79;21128;-76
2021/03/04 14:19:06;;;;;;;32.93;13.65;;;;;;;12.25;44.45;99095.98;1770860;79;21133;-74
2021/03/04 14:21:34;;;;;;;32.70;13.13;;;;;;;12.30;43.92;99091.48;1779963;79;21189;-76
2021/03/04 14:24:02;;;;;;;31.65;13.85;;;;;;;12.26;44.20;99090.73;1783458;79;22255;-76
2021/03/04 14:26:32;;;;;;;33.80;12.55;;;;;;;12.28;43.64;99086.78;1786929;79;21591;-74
2021/03/04 14:29:03;;;;;;;29.48;13.28;;;;;;;12.27;43.43;99079.38;1774759;80;21150;-74
2021/03/04 14:31:31;;;;;;;38.55;11.80;;;;;;;12.31;43.81;99083.62;1782521;79;21585;-76
2021/03/04 14:33:59;;;;;;;34.08;13.58;;;;;;;12.31;43.90;99075.80;1788797;79;21165;-75
2021/03/04 14:36:27;;;;;;;29.82;13.10;;;;;;;12.32;43.25;99071.44;1790771;79;21146;-77
2021/03/04 14:38:55;;;;;;;28.73;12.68;;;;;;;12.37;43.26;99066.06;1757179;79;21177;-76
2021/03/04 14:41:23;;;;;;;29.37;12.43;;;;;;;12.32;42.46;99068.83;1778344;79;21212;-76
2021/03/04 14:43:52;;;;;;;35.63;13.30;;;;;;;12.30;41.92;99065.42;1775025;79;21654;-76
2021/03/04 14:46:21;;;;;;;36.17;13.93;;;;;;;12.33;42.12;99060.09;1769797;79;21610;-76
2021/03/04 14:48:50;;;;;;;35.05;12.70;;;;;;;12.31;42.56;99057.55;1778936;79;21169;-75
2021/03/04 14:51:19;;;;;;;33.73;14.50;;;;;;;12.37;43.00;99055.17;1764253;79;21589;-76
2021/03/04 14:53:47;;;;;;;33.98;13.75;;;;;;;12.31;42.63;99051.04;1786469;79;21166;-75
2021/03/04 14:56:18;;;;;;;31.45;13.75;;;;;;;12.25;43.09;99036.03;1778756;79;21148;-76
2021/03/04 14:58:48;;;;;;;41.48;13.18;;;;;;;12.29;42.80;99046.75;1775436;79;21161;-76
2021/03/04 15:01:16;;;;;;;34.50;14.18;;;;;;;12.21;41.56;99043.55;1775095;79;21159;-76
2021/03/04 15:03:45;;;;;;;32.88;13.95;;;;;;;12.17;42.26;99044.09;1765068;79;21146;-76
2021/03/04 15:06:16;;;;;;;33.25;14.70;;;;;;;12.14;41.37;99042.45;1772749;79;21605;-77
2021/03/04 15:08:44;;;;;;;39.88;13.93;;;;;;;12.10;42.26;99038.24;1786933;79;21543;-75
2021/03/04 15:11:14;;;;;;;43.48;14.15;;;;;;;12.05;41.88;99036.22;1769180;79;21148;-75
2021/03/04 15:13:42;;;;;;;36.93;15.70;;;;;;;11.99;41.78;99039.02;1765800;80;21559;-76
2021/03/04 15:16:10;;;;;;;34.15;15.25;;;;;;;11.96;41.98;99033.05;1734072;81;21163;-77
2021/03/04 15:18:38;;;;;;;43.83;15.88;;;;;;;11.91;40.62;99040.56;1736140;82;21198;-75
2021/03/04 15:21:06;;;;;;;33.58;14.25;;;;;;;11.85;39.64;99034.67;1733152;81;21169;-74
2021/03/04 15:23:34;;;;;;;39.20;15.48;;;;;;;11.81;39.29;99047.39;1737453;82;21159;-75
2021/03/04 15:26:02;;;;;;;45.12;15.13;;;;;;;11.79;40.77;99038.31;1748984;79;21183;-75
2021/03/04 15:28:30;;;;;;;39.92;15.38;;;;;;;11.74;41.55;99039.77;1788071;79;21098;-75
2021/03/04 15:30:59;;;;;;;42.48;15.95;;;;;;;11.67;40.56;99043.91;1786546;79;21149;-75
2021/03/04 15:33:27;;;;;;;37.90;16.65;;;;;;;11.61;41.22;99038.89;1783272;79;21125;-76
2021/03/04 15:35:56;;;;;;;33.08;15.63;;;;;;;11.54;41.43;99040.37;1780778;79;21149;-75
2021/03/04 15:38:26;;;;;;;41.60;14.78;;;;;;;11.50;41.46;99037.92;1778615;79;21124;-76
2021/03/04 15:40:54;;;;;;;32.03;15.03;;;;;;;11.41;41.77;99039.02;1773168;79;21596;-76
2021/03/04 15:43:22;;;;;;;30.50;13.85;;;;;;;11.31;42.12;99046.24;1794482;79;21126;-75
2021/03/04 15:45:51;;;;;;;29.35;13.93;;;;;;;11.20;42.38;99043.12;1790911;79;21114;-76
2021/03/04 15:48:20;;;;;;;38.83;15.18;;;;;;;11.08;42.73;99044.31;1773078;80;21109;-76
2021/03/04 15:50:50;;;;;;;36.85;15.18;;;;;;;10.95;43.14;99042.48;1795811;79;21575;-74
2021/03/04 15:53:18;;;;;;;39.67;16.67;;;;;;;10.82;43.37;99041.09;1790247;79;21161;-76
2021/03/04 15:55:46;;;;;;;37.38;18.55;;;;;;;10.69;43.68;99043.19;1784209;78;21179;-77
2021/03/04 15:58:16;;;;;;;46.60;18.23;;;;;;;10.57;43.89;99042.67;1782479;79;21546;-75
2021/03/04 16:00:43;;;;;;;46.88;17.73;;;;;;;10.43;44.15;99046.92;1776257;79;21492;-76
2021/03/04 16:03:12;;;;;;;41.80;16.82;;;;;;;10.28;44.60;99045.50;1779253;79;21694;-76
2021/03/04 16:05:39;;;;;;;43.10;15.05;;;;;;;10.14;44.96;99042.79;1771241;80;22231;-75
2021/03/04 16:08:08;;;;;;;31.02;14.03;;;;;;;10.02;45.06;99046.98;1782863;79;21165;-75
2021/03/04 16:10:38;;;;;;;37.50;15.68;;;;;;;9.89;45.37;99037.34;1761798;79;21509;-77
2021/03/04 16:13:07;;;;;;;43.00;17.10;;;;;;;9.76;45.82;99035.45;1778199;79;21154;-76
2021/03/04 16:15:36;;;;;;;42.08;15.35;;;;;;;9.65;45.59;99040.47;1782987;79;22386;-76
2021/03/04 16:18:05;;;;;;;35.30;14.10;;;;;;;9.53;46.18;99035.14;1784775;78;21165;-77
2021/03/04 16:20:33;;;;;;;35.05;14.45;;;;;;;9.40;46.32;99033.69;1757446;79;21613;-76
2021/03/04 16:23:02;;;;;;;33.05;14.03;;;;;;;9.28;46.90;99034.34;1766964;79;21192;-77
2021/03/04 16:25:35;;;;;;;46.70;16.12;;;;;;;9.19;46.96;99044.05;1759745;79;21159;-77
2021/03/04 16:28:05;;;;;;;40.78;14.98;;;;;;;9.08;47.05;99039.94;1766991;79;21176;-77
2021/03/04 16:30:33;;;;;;;40.73;16.17;;;;;;;8.98;47.51;99045.34;1758853;79;21597;-76
2021/03/04 16:33:03;;;;;;;36.53;16.15;;;;;;;8.88;47.64;99048.11;1767271;79;21162;-76
2021/03/04 16:35:33;;;;;;;42.48;14.55;;;;;;;8.79;47.65;99050.86;1749767;80;21670;-75
2021/03/04 16:38:03;;;;;;;36.20;15.68;;;;;;;8.71;47.29;99051.03;1766647;79;21135;-76
2021/03/04 16:40:31;;;;;;;38.98;15.08;;;;;;;8.62;47.47;99055.07;1753316;80;21191;-76
2021/03/04 16:43:00;;;;;;;37.28;16.35;;;;;;;8.53;48.68;99059.11;1739868;80;21188;-76
2021/03/04 16:45:28;;;;;;;39.90;15.43;;;;;;;8.45;48.72;99058.39;1725609;80;22261;-74
2021/03/04 16:47:58;;;;;;;37.15;15.32;;;;;;;8.38;49.53;99054.18;1767451;79;21164;-77
2021/03/04 16:50:26;;;;;;;47.38;19.48;;;;;;;8.31;48.66;99059.43;1761276;79;21624;-76
2021/03/04 16:52:55;;;;;;;63.28;26.23;;;;;;;8.25;50.21;99061.28;1753175;81;22024;-77
2021/03/04 16:55:23;;;;;;;60.40;24.72;;;;;;;8.17;52.26;99058.36;1751032;81;21165;-76
2021/03/04 16:57:50;;;;;;;51.88;20.23;;;;;;;8.15;52.33;99056.69;1769548;79;21175;-77
2021/03/04 17:00:21;;;;;;;45.50;18.60;;;;;;;8.10;52.50;99060.66;1765671;80;21163;-75
2021/03/04 17:02:50;;;;;;;37.93;16.90;;;;;;;8.06;50.67;99061.58;1764953;79;21164;-76
2021/03/04 17:05:19;;;;;;;41.30;16.52;;;;;;;8.04;50.74;99059.45;1754809;80;21167;-76
2021/03/04 17:07:48;;;;;;;36.93;16.25;;;;;;;8.01;51.23;99063.37;1757923;80;21617;-78
2021/03/04 17:10:17;;;;;;;39.38;17.00;;;;;;;7.97;50.32;99061.70;1753843;80;21177;-76
2021/03/04 17:12:45;;;;;;;37.38;16.80;;;;;;;7.92;50.26;99062.23;1749993;80;21183;-76
2021/03/04 17:15:14;;;;;;;37.35;16.73;;;;;;;7.88;51.06;99057.98;1750417;80;21140;-76
2021/03/04 17:17:41;;;;;;;39.58;16.05;;;;;;;7.85;51.76;99061.45;1749916;80;21604;-76
2021/03/04 17:20:10;;;;;;;42.35;17.27;;;;;;;7.80;51.20;99058.09;1747713;80;21133;-76
2021/03/04 17:22:38;;;;;;;43.55;18.10;;;;;;;7.74;51.34;99062.91;1743666;80;22001;-76
2021/03/04 17:25:07;;;;;;;38.80;17.62;;;;;;;7.71;51.61;99059.50;1712746;81;21136;-77
2021/03/04 17:27:37;;;;;;;45.35;18.75;;;;;;;7.65;53.43;99056.55;1724354;81;21138;-76
2021/03/04 17:30:06;;;;;;;45.25;17.17;;;;;;;7.60;52.25;99060.08;1723468;82;21180;-75
2021/03/04 17:32:34;;;;;;;39.45;16.70;;;;;;;7.54;53.53;99062.30;1738376;81;21149;-75
2021/03/04 17:35:05;;;;;;;43.75;19.62;;;;;;;7.50;52.38;99056.75;1719136;81;21152;-76